Terminal Aerodrome Forecast
Issued by NWS Melbourne, FL

Home | Current Version | Previous Version | Text Only | Print | Product List | Glossary On
Versions: 1 2 3 4 5 6 7 8 9 10 11 12 13 14 15 16 17 18 19 20 21 22 23 24 25 26
000
FTUS42 KMLB 252300 RRA
TAFMCO
TAF
KMCO 252342Z 2600/2624 07006KT P6SM FEW050 SCT080 BKN250
     FM260200 VRB03KT P6SM FEW060 SCT250
     FM261400 23005KT P6SM SCT035 SCT250
     FM261800 25005KT P6SM VCTS SCT035CB SCT080=

USA.gov is the U.S. government's official web portal to all federal, state and local government web resources and services.